KETH

Wheaton Municipal Airport

Wheaton, Minnesota, USA
METAR KETH 161541Z AUTO 00000KT 10SM CLR M04/M08 A3008 RMK AO2
Observed Flight Rules
Nov-16 @ 15:41 UTC (23 minutes ago) Visual Flight Rules
Visibility Clouds
10 miles
  • Clear skies
Temperatures Readings
Current -4°C / 25°F
Dewpoint -8°C / 18°F
Humidity 74%
Altimeter 30.08" Hg
Pressure 1019 hPa
Elevation 313
METAR KETH 161541Z AUTO 00000KT 10SM CLR M04/M08 A3008 RMK AO2
Observed Flight Rules
Nov-16 @ 15:41 UTC
(23 minutes ago)
VFR
Clouds
  • Clear skies
Temperature Dewpoint
-4°C / 25°F -8°C / 18°F
Humidity Altimeter Pressure
74% 30.08" Hg 1019 hPa